Time;durP1;ratioP1;P1;durP2;ratioP2;P2;SDS_P1;SDS_P2;PMS_P1;PMS_P2;Temp;Humidity;BMP_temperature;BMP_pressure;BME280_temperature;BME280_humidity;BME280_pressure;Samples;Min_cycle;Max_cycle;Signal;HPM_P1;HPM_P2
2022/10/31 00:01:50;;;;;;;5.00;2.50;;;;;;;10.73;67.09;98842.36;25369;1291;3028168;-67
2022/10/31 00:04:19;;;;;;;9.70;2.90;;;;;;;10.66;67.13;98841.66;25337;1290;3027639;-68
2022/10/31 00:06:50;;;;;;;8.60;2.50;;;;;;;10.44;67.99;98840.38;25389;1297;3051319;-67
2022/10/31 00:09:20;;;;;;;6.10;2.50;;;;;;;10.31;68.57;98831.77;25359;1290;3029692;-66
2022/10/31 00:11:55;;;;;;;10.70;3.00;;;;;;;10.28;68.52;98829.38;25350;1297;3026079;-66
2022/10/31 00:14:24;;;;;;;6.00;2.70;;;;;;;10.05;69.59;98830.05;25278;1282;3028447;-67
2022/10/31 00:16:52;;;;;;;9.50;2.90;;;;;;;9.99;69.88;98824.00;25373;1298;3029184;-66
2022/10/31 00:19:21;;;;;;;8.50;3.30;;;;;;;9.99;70.02;98821.20;25410;1291;3049191;-67
2022/10/31 00:21:52;;;;;;;7.60;2.70;;;;;;;9.92;70.54;98823.09;25295;1289;3025945;-65
2022/10/31 00:24:24;;;;;;;7.80;3.20;;;;;;;9.92;70.33;98820.97;25385;1290;3027100;-66
2022/10/31 00:26:55;;;;;;;8.40;2.80;;;;;;;9.84;70.71;98817.11;25330;1304;3027734;-66
2022/10/31 00:29:27;;;;;;;6.40;2.70;;;;;;;9.86;70.55;98811.38;25397;1294;3027250;-65
2022/10/31 00:31:57;;;;;;;8.40;2.50;;;;;;;9.97;70.42;98813.27;25405;1298;3025939;-66
2022/10/31 00:34:27;;;;;;;11.20;2.60;;;;;;;10.52;69.28;98806.33;25322;1297;3025766;-66
2022/10/31 00:36:55;;;;;;;7.40;2.50;;;;;;;10.95;68.09;98803.83;25313;1293;3027164;-66
2022/10/31 00:39:24;;;;;;;5.60;2.40;;;;;;;10.71;68.20;98801.19;25347;1289;3052282;-65
2022/10/31 00:41:53;;;;;;;7.60;2.80;;;;;;;10.74;68.03;98799.34;25299;1298;3025348;-66
2022/10/31 00:44:22;;;;;;;6.00;2.80;;;;;;;10.67;67.99;98798.80;25361;1296;3052558;-66
2022/10/31 00:46:52;;;;;;;7.20;2.90;;;;;;;10.40;68.70;98799.43;25354;1298;3026285;-66
2022/10/31 00:49:24;;;;;;;5.50;2.40;;;;;;;10.22;69.50;98800.73;25319;1297;3028513;-66
2022/10/31 00:51:54;;;;;;;9.90;2.80;;;;;;;10.01;70.41;98795.17;25338;1304;3028796;-66
2022/10/31 00:54:23;;;;;;;5.30;2.40;;;;;;;9.98;70.23;98792.06;25372;1281;3027331;-66
2022/10/31 00:56:55;;;;;;;7.70;2.70;;;;;;;9.86;70.94;98789.00;25337;1291;3050602;-66
2022/10/31 00:59:24;;;;;;;5.70;2.90;;;;;;;9.74;71.74;98792.83;25373;1298;3027541;-66
2022/10/31 01:01:56;;;;;;;6.90;2.90;;;;;;;9.67;71.89;98786.40;25381;1296;3028423;-67
2022/10/31 01:04:25;;;;;;;9.00;3.00;;;;;;;9.57;72.22;98784.13;25309;1290;3028354;-65
2022/10/31 01:06:54;;;;;;;3.20;1.60;;;;;;;9.63;72.57;98781.48;25367;1296;3051843;-65
2022/10/31 01:09:23;;;;;;;5.10;2.10;;;;;;;10.15;71.31;98780.55;25317;1293;3024655;-66
2022/10/31 01:11:51;;;;;;;5.60;2.00;;;;;;;10.83;69.42;98774.49;25229;1284;3050806;-66
2022/10/31 01:14:20;;;;;;;7.90;2.70;;;;;;;11.08;67.96;98779.88;25297;1290;3028943;-68
2022/10/31 01:16:50;;;;;;;7.10;2.70;;;;;;;11.04;67.93;98785.79;25268;1298;3054195;-68
2022/10/31 01:19:19;;;;;;;6.00;2.70;;;;;;;10.59;68.57;98779.23;25321;1291;3027318;-68
2022/10/31 01:21:49;;;;;;;6.10;2.90;;;;;;;10.32;69.57;98775.70;25345;1289;3054428;-68
2022/10/31 01:24:18;;;;;;;9.20;3.10;;;;;;;10.18;69.77;98776.33;25351;1290;3027572;-68
2022/10/31 01:26:47;;;;;;;6.30;2.30;;;;;;;9.94;70.72;98775.17;25321;1298;3055403;-68
2022/10/31 01:29:16;;;;;;;8.30;2.80;;;;;;;9.82;71.24;98775.27;25348;1288;3025948;-68
2022/10/31 01:31:46;;;;;;;9.10;3.00;;;;;;;9.75;71.39;98768.44;25366;1298;3026295;-68
2022/10/31 01:34:16;;;;;;;4.50;2.40;;;;;;;9.62;72.15;98773.52;25310;1290;3055270;-68
2022/10/31 01:36:47;;;;;;;6.90;2.70;;;;;;;9.48;72.55;98773.39;25283;1297;3026368;-68
2022/10/31 01:39:16;;;;;;;5.40;1.80;;;;;;;9.39;73.56;98766.99;25380;1297;3026450;-69
2022/10/31 01:41:47;;;;;;;6.70;2.20;;;;;;;9.95;72.50;98762.69;25322;1291;3027550;-69
2022/10/31 01:44:17;;;;;;;6.40;1.90;;;;;;;10.52;70.42;98767.11;25365;1291;3026097;-69
2022/10/31 01:46:47;;;;;;;6.90;2.50;;;;;;;10.32;70.31;98765.17;25356;1297;3028109;-69
2022/10/31 01:49:19;;;;;;;8.30;2.60;;;;;;;10.17;70.79;98756.80;25299;1291;3052156;-68
2022/10/31 01:51:54;;;;;;;8.40;3.00;;;;;;;9.96;71.40;98757.88;25359;1290;3027502;-68
2022/10/31 01:54:24;;;;;;;9.10;2.90;;;;;;;9.83;71.59;98758.42;25376;1284;3048616;-68
2022/10/31 01:56:54;;;;;;;7.30;2.70;;;;;;;9.78;71.63;98751.25;25350;1291;3025825;-68
2022/10/31 01:59:24;;;;;;;9.70;3.40;;;;;;;9.63;72.08;98755.27;25377;1289;3027224;-68
2022/10/31 02:01:53;;;;;;;10.60;3.90;;;;;;;9.52;72.27;98755.28;25338;1297;3027608;-68
2022/10/31 02:04:22;;;;;;;8.80;3.50;;;;;;;9.21;74.02;98751.73;25386;1290;3026458;-68
2022/10/31 02:06:57;;;;;;;8.00;3.70;;;;;;;9.11;74.80;98755.73;25342;1291;3050584;-68
2022/10/31 02:09:29;;;;;;;17.00;3.00;;;;;;;9.17;74.48;98759.00;25367;1298;3055861;-68
2022/10/31 02:11:58;;;;;;;7.80;2.50;;;;;;;9.80;72.86;98755.30;25393;1289;3027419;-68
2022/10/31 02:14:30;;;;;;;7.40;3.30;;;;;;;10.30;70.72;98759.20;25358;1300;3029703;-68
2022/10/31 02:16:59;;;;;;;7.90;3.40;;;;;;;10.28;70.31;98755.34;25321;1292;3028294;-68
2022/10/31 02:19:51;;;;;;;10.30;4.30;;;;;;;10.26;70.34;98752.69;25363;1291;3026996;-68
2022/10/31 02:22:36;;;;;;;10.10;4.30;;;;;;;10.06;70.63;98760.02;25380;1298;3053925;-67
2022/10/31 02:25:19;;;;;;;11.20;4.50;;;;;;;9.76;71.70;98762.42;25328;1298;3051769;-68
2022/10/31 02:28:26;;;;;;;7.30;3.80;;;;;;;9.65;72.00;98761.02;25366;1289;3054226;-67
2022/10/31 02:31:14;;;;;;;10.20;4.10;;;;;;;9.47;72.65;98761.06;25254;1298;3049801;-67
2022/10/31 02:33:51;;;;;;;11.80;4.80;;;;;;;9.25;73.74;98763.53;25340;1290;3068470;-67
2022/10/31 02:36:44;;;;;;;10.50;4.70;;;;;;;9.21;73.86;98763.31;25399;1297;3049541;-68
2022/10/31 02:40:12;;;;;;;5.80;2.20;;;;;;;9.21;74.21;98755.59;25375;1288;3055773;-68
2022/10/31 02:43:17;;;;;;;6.30;2.50;;;;;;;10.20;70.94;98746.09;25186;1293;3054097;-68
2022/10/31 02:46:15;;;;;;;7.60;3.10;;;;;;;10.47;69.50;98748.06;25219;1304;3053452;-68
2022/10/31 02:48:44;;;;;;;12.70;4.60;;;;;;;10.12;70.15;98750.63;25296;1300;3053352;-69
2022/10/31 02:51:13;;;;;;;12.90;4.40;;;;;;;9.93;70.62;98753.17;25310;1282;3027617;-70
2022/10/31 02:53:42;;;;;;;17.20;5.80;;;;;;;9.66;71.77;98756.96;25299;1306;3052830;-69
2022/10/31 02:56:14;;;;;;;13.90;5.30;;;;;;;9.65;71.79;98752.13;25337;1291;3029295;-69
2022/10/31 02:58:48;;;;;;;15.90;5.90;;;;;;;9.54;72.17;98751.30;25353;1291;3052106;-68
2022/10/31 03:01:35;;;;;;;13.50;5.80;;;;;;;9.34;73.14;98749.52;25328;1298;3052530;-69
2022/10/31 03:04:22;;;;;;;12.60;5.70;;;;;;;9.26;73.42;98754.21;25316;1298;3052506;-69
2022/10/31 03:07:02;;;;;;;14.50;6.20;;;;;;;9.11;74.28;98750.98;25274;1298;3052489;-68
2022/10/31 03:09:37;;;;;;;15.60;3.90;;;;;;;9.13;74.53;98740.96;25302;1298;3050862;-68
2022/10/31 03:12:10;;;;;;;11.00;3.80;;;;;;;9.90;72.68;98734.13;25296;1295;3069121;-68
2022/10/31 03:14:42;;;;;;;12.10;3.90;;;;;;;10.22;70.90;98735.77;24829;1287;3051053;-68
2022/10/31 03:17:16;;;;;;;12.20;3.90;;;;;;;10.29;70.43;98730.77;25324;1297;3056501;-69
2022/10/31 03:19:47;;;;;;;13.50;5.10;;;;;;;10.06;70.96;98733.61;25350;1288;3051849;-68
2022/10/31 03:22:19;;;;;;;11.10;4.90;;;;;;;9.84;71.66;98736.48;25306;1298;3026518;-68
2022/10/31 03:24:52;;;;;;;15.20;5.70;;;;;;;9.53;72.90;98741.24;25315;1297;3026692;-68
2022/10/31 03:27:25;;;;;;;9.10;5.00;;;;;;;9.43;73.49;98738.92;25326;1306;3052925;-69
2022/10/31 03:29:57;;;;;;;11.20;5.10;;;;;;;9.40;73.62;98745.95;25327;1298;3027365;-69
2022/10/31 03:32:33;;;;;;;10.10;5.10;;;;;;;9.30;74.01;98734.05;25344;1306;3026494;-68
2022/10/31 03:35:03;;;;;;;14.10;4.70;;;;;;;9.20;74.25;98736.25;25297;1304;3050950;-68
2022/10/31 03:37:33;;;;;;;9.30;3.20;;;;;;;9.12;75.24;98733.83;25349;1296;3027842;-68
2022/10/31 03:40:04;;;;;;;10.30;4.20;;;;;;;9.80;73.44;98729.57;25325;1297;3026607;-68
2022/10/31 03:42:34;;;;;;;12.70;4.20;;;;;;;10.22;71.19;98728.64;25348;1298;3026344;-67
2022/10/31 03:45:08;;;;;;;15.40;4.80;;;;;;;10.17;71.20;98728.25;25406;1296;3025709;-67
2022/10/31 03:47:37;;;;;;;11.60;5.40;;;;;;;9.94;71.82;98741.25;25348;1287;3025701;-67
2022/10/31 03:50:07;;;;;;;19.10;5.80;;;;;;;9.73;72.69;98735.70;25357;1297;3027900;-67
2022/10/31 03:52:58;;;;;;;12.80;5.70;;;;;;;9.67;73.01;98727.55;25297;1298;3028689;-67
2022/10/31 03:56:23;;;;;;;19.30;6.50;;;;;;;9.58;73.09;98727.96;25327;1297;3050206;-68
2022/10/31 03:59:01;;;;;;;18.40;6.30;;;;;;;9.27;74.45;98732.69;25263;1283;3057063;-67
2022/10/31 04:01:32;;;;;;;18.00;6.10;;;;;;;9.14;75.04;98728.65;25342;1298;3054202;-67
2022/10/31 04:04:01;;;;;;;11.50;4.70;;;;;;;9.07;75.94;98728.19;25330;1306;3027788;-68
2022/10/31 04:06:30;;;;;;;11.20;4.80;;;;;;;9.76;74.14;98731.59;25302;1291;3027028;-69
2022/10/31 04:09:02;;;;;;;9.60;4.10;;;;;;;10.14;71.89;98736.18;25341;1292;3052755;-69
2022/10/31 04:11:53;;;;;;;11.60;4.40;;;;;;;10.05;71.98;98739.79;25287;1291;3052361;-68
2022/10/31 04:14:50;;;;;;;16.30;4.70;;;;;;;9.91;72.29;98736.05;25318;1298;3051399;-68
2022/10/31 04:17:21;;;;;;;16.00;6.00;;;;;;;9.61;73.37;98731.77;25272;1301;3026665;-68
2022/10/31 04:19:50;;;;;;;12.90;4.40;;;;;;;9.42;74.01;98733.90;25369;1297;3027203;-69
2022/10/31 04:22:23;;;;;;;13.10;4.40;;;;;;;9.34;74.48;98741.45;25343;1290;3026665;-68
2022/10/31 04:24:52;;;;;;;15.10;5.40;;;;;;;9.28;74.54;98749.00;25309;1283;3026462;-69
2022/10/31 04:27:21;;;;;;;10.30;4.20;;;;;;;9.21;74.95;98743.02;25319;1298;3048957;-68
2022/10/31 04:29:51;;;;;;;7.80;3.10;;;;;;;9.15;75.61;98750.95;25326;1291;3028397;-67
2022/10/31 04:32:20;;;;;;;10.70;3.60;;;;;;;9.67;74.75;98739.77;25348;1302;3028648;-68
2022/10/31 04:34:49;;;;;;;5.90;3.00;;;;;;;10.16;72.16;98747.39;25308;1298;3048942;-68
2022/10/31 04:37:18;;;;;;;13.10;3.30;;;;;;;10.02;72.24;98745.20;25349;1291;3028453;-67
2022/10/31 04:39:48;;;;;;;13.60;4.10;;;;;;;10.14;71.72;98739.70;25322;1298;3053974;-68
2022/10/31 04:42:46;;;;;;;4.70;2.70;;;;;;;9.83;72.38;98757.00;25189;1297;3049256;-67
2022/10/31 04:45:16;;;;;;;5.80;3.00;;;;;;;9.50;73.69;98749.65;25350;1297;3028670;-67
2022/10/31 04:47:45;;;;;;;9.90;3.20;;;;;;;9.39;74.17;98748.30;25270;1302;3026466;-68
2022/10/31 04:50:15;;;;;;;9.00;3.30;;;;;;;9.30;74.64;98751.50;25347;1301;3050273;-67
2022/10/31 04:52:44;;;;;;;7.60;3.10;;;;;;;9.30;74.59;98755.91;25390;1294;3027188;-68
2022/10/31 04:55:15;;;;;;;5.70;2.10;;;;;;;9.30;74.81;98760.62;25333;1298;3027321;-67
2022/10/31 04:57:47;;;;;;;4.10;1.70;;;;;;;9.93;73.34;98758.44;25389;1291;3026477;-67
2022/10/31 05:00:19;;;;;;;6.10;2.30;;;;;;;10.23;71.55;98758.48;25386;1298;3028558;-67
2022/10/31 05:02:53;;;;;;;6.30;2.20;;;;;;;10.26;71.13;98753.50;25345;1294;3053920;-67
2022/10/31 05:05:24;;;;;;;6.10;2.00;;;;;;;10.16;71.24;98761.90;25329;1298;3026885;-67
2022/10/31 05:07:55;;;;;;;4.90;2.10;;;;;;;9.97;71.97;98758.70;25372;1298;3027344;-67
2022/10/31 05:10:27;;;;;;;4.80;1.90;;;;;;;9.88;72.31;98761.77;25349;1305;3025870;-67
2022/10/31 05:12:58;;;;;;;7.70;3.00;;;;;;;9.75;72.56;98773.30;25391;1298;3026753;-68
2022/10/31 05:15:47;;;;;;;5.90;2.00;;;;;;;9.54;73.80;98770.70;25349;1294;3050637;-67
2022/10/31 05:18:39;;;;;;;10.40;2.90;;;;;;;9.57;73.94;98769.61;25311;1288;3056406;-68
2022/10/31 05:21:14;;;;;;;9.20;2.80;;;;;;;9.51;74.08;98777.35;25456;1291;3051438;-68
2022/10/31 05:23:47;;;;;;;4.40;1.80;;;;;;;9.44;74.67;98769.44;25378;1294;3024868;-68
2022/10/31 05:26:18;;;;;;;11.00;2.20;;;;;;;10.02;73.31;98775.11;25413;1303;3025546;-68
2022/10/31 05:28:47;;;;;;;5.90;2.20;;;;;;;10.78;70.69;98772.09;25386;1288;3027372;-68
2022/10/31 05:31:16;;;;;;;8.20;2.60;;;;;;;10.53;70.73;98765.27;25372;1296;3052182;-67
2022/10/31 05:33:45;;;;;;;9.10;3.20;;;;;;;10.35;71.26;98771.84;25341;1297;3027272;-68
2022/10/31 05:36:34;;;;;;;6.20;3.10;;;;;;;10.12;71.87;98773.25;25389;1289;3052485;-67
2022/10/31 05:39:06;;;;;;;12.00;3.00;;;;;;;9.95;73.08;98778.80;25375;1298;3027588;-68
2022/10/31 05:41:43;;;;;;;8.00;3.00;;;;;;;9.70;74.38;98772.97;25385;1294;3069242;-67
2022/10/31 05:44:17;;;;;;;10.10;3.40;;;;;;;9.66;74.67;98775.14;25377;1294;3049973;-67
2022/10/31 05:46:55;;;;;;;10.70;3.40;;;;;;;9.55;75.56;98767.31;25377;1305;3056193;-70
2022/10/31 05:49:57;;;;;;;8.70;2.50;;;;;;;9.61;75.70;98781.23;25379;1299;3053443;-68
2022/10/31 05:52:45;;;;;;;6.20;1.90;;;;;;;10.39;73.72;98781.66;25455;1303;3053214;-68
2022/10/31 05:55:29;;;;;;;4.20;2.00;;;;;;;10.73;71.98;98785.58;25393;1297;3053131;-68
2022/10/31 05:58:06;;;;;;;10.90;2.20;;;;;;;10.63;71.96;98789.10;25425;1299;3052639;-68
2022/10/31 06:00:37;;;;;;;4.80;1.80;;;;;;;10.35;72.90;98785.96;25331;1305;3027130;-67
2022/10/31 06:03:09;;;;;;;6.10;1.80;;;;;;;10.09;74.23;98787.92;25389;1298;3026046;-68
2022/10/31 06:05:46;;;;;;;4.40;1.50;;;;;;;9.87;74.73;98804.70;25436;1286;3050074;-68
2022/10/31 06:08:15;;;;;;;6.30;1.90;;;;;;;9.68;75.39;98797.92;25353;1302;3026308;-67
2022/10/31 06:10:45;;;;;;;3.20;1.70;;;;;;;9.65;75.40;98792.51;25343;1298;3068442;-68
2022/10/31 06:13:14;;;;;;;5.20;1.60;;;;;;;9.44;76.12;98804.60;25356;1291;3026017;-68
2022/10/31 06:15:47;;;;;;;2.80;0.90;;;;;;;9.44;76.35;98800.95;25332;1303;3026910;-68
2022/10/31 06:18:19;;;;;;;2.90;1.00;;;;;;;9.98;75.08;98795.52;25311;1296;3026270;-68
2022/10/31 06:20:50;;;;;;;3.50;1.00;;;;;;;10.30;72.98;98806.44;25419;1292;3026515;-67
2022/10/31 06:23:19;;;;;;;1.60;0.90;;;;;;;10.41;72.41;98799.96;25414;1297;3029530;-67
2022/10/31 06:25:51;;;;;;;4.10;1.40;;;;;;;10.27;71.81;98802.27;25408;1297;3053378;-68
2022/10/31 06:28:20;;;;;;;4.80;1.20;;;;;;;10.11;71.69;98802.38;25429;1293;3028322;-67
2022/10/31 06:30:59;;;;;;;5.30;1.40;;;;;;;9.88;72.20;98805.29;25319;1298;3056537;-67
2022/10/31 06:33:28;;;;;;;4.10;1.50;;;;;;;9.72;72.13;98812.73;25381;1304;3028594;-68
2022/10/31 06:36:00;;;;;;;3.90;1.60;;;;;;;9.50;72.68;98819.21;25312;1289;3028679;-67
2022/10/31 06:38:29;;;;;;;4.90;1.20;;;;;;;9.39;72.71;98833.44;25387;1293;3026387;-67
2022/10/31 06:41:05;;;;;;;3.80;1.20;;;;;;;9.25;72.76;98825.38;25442;1298;3028416;-67
2022/10/31 06:43:47;;;;;;;3.00;1.40;;;;;;;9.20;73.36;98828.38;25439;1290;3049503;-68
2022/10/31 06:46:54;;;;;;;3.20;1.20;;;;;;;9.19;73.27;98824.95;25428;1298;3068651;-66
2022/10/31 06:49:41;;;;;;;2.60;1.10;;;;;;;9.25;73.37;98825.57;25352;1297;3049825;-68
2022/10/31 06:52:15;;;;;;;2.20;0.90;;;;;;;9.91;71.41;98833.08;25386;1296;3057758;-67
2022/10/31 06:54:44;;;;;;;4.60;1.20;;;;;;;10.31;69.15;98824.80;25405;1297;3028976;-68
2022/10/31 06:57:13;;;;;;;3.30;1.60;;;;;;;10.28;68.93;98822.91;25358;1287;3027089;-67
2022/10/31 06:59:42;;;;;;;5.10;1.70;;;;;;;10.07;69.44;98831.30;25420;1291;3056408;-67
2022/10/31 07:02:30;;;;;;;4.20;2.50;;;;;;;9.70;70.26;98825.75;25429;1294;3052226;-66
2022/10/31 07:04:59;;;;;;;4.40;1.80;;;;;;;9.63;70.95;98821.33;25333;1287;3026157;-66
2022/10/31 07:07:28;;;;;;;3.40;1.40;;;;;;;9.47;71.46;98820.52;25398;1289;3027015;-68
2022/10/31 07:09:58;;;;;;;6.30;1.80;;;;;;;9.36;71.65;98827.30;25510;1298;3052124;-66
2022/10/31 07:12:55;;;;;;;6.60;2.00;;;;;;;9.22;72.22;98830.31;25524;1302;3054877;-66
2022/10/31 07:15:25;;;;;;;4.20;1.50;;;;;;;9.06;72.64;98832.89;25477;1291;3051167;-66
2022/10/31 07:18:00;;;;;;;5.30;2.10;;;;;;;9.00;72.83;98828.93;25447;1304;3028582;-65
2022/10/31 07:20:30;;;;;;;3.10;1.90;;;;;;;8.98;72.77;98821.94;25489;1298;3049385;-68
2022/10/31 07:23:00;;;;;;;6.60;2.60;;;;;;;9.03;72.55;98825.08;25387;1303;3024877;-68
2022/10/31 07:25:34;;;;;;;2.50;1.40;;;;;;;9.08;72.76;98833.30;25566;1299;3050932;-70
2022/10/31 07:28:08;;;;;;;;;;;;;;;9.70;71.10;98835.22;25523;1293;3056214;-68
2022/10/31 07:30:37;;;;;;;3.80;1.60;;;;;;;10.21;69.28;98828.80;25449;1297;3025555;-68
2022/10/31 07:33:07;;;;;;;3.70;1.50;;;;;;;9.91;68.94;98824.39;25419;1297;3049750;-68
2022/10/31 07:36:05;;;;;;;2.00;1.00;;;;;;;9.63;69.64;98835.48;25362;1301;3056461;-67
2022/10/31 07:38:34;;;;;;;7.10;1.50;;;;;;;9.14;71.42;98852.00;25348;1298;3027488;-67
2022/10/31 07:41:05;;;;;;;5.20;1.20;;;;;;;8.99;71.61;98844.70;25343;1294;3027106;-68
2022/10/31 07:43:39;;;;;;;3.50;1.30;;;;;;;8.86;71.23;98858.48;25376;1293;3051775;-68
2022/10/31 07:46:21;;;;;;;2.60;0.70;;;;;;;8.66;69.63;98859.02;25367;1298;3053491;-68
2022/10/31 07:49:09;;;;;;;2.30;1.00;;;;;;;8.49;66.04;98875.45;25378;1301;3049280;-66
2022/10/31 07:51:57;;;;;;;0.90;0.50;;;;;;;8.51;65.14;98876.66;25369;1298;3068542;-67
2022/10/31 07:54:45;;;;;;;0.40;0.30;;;;;;;8.29;64.24;98871.02;25405;1294;3049884;-67
2022/10/31 07:57:14;;;;;;;1.20;0.50;;;;;;;8.21;64.06;98874.30;25435;1294;3027483;-67
2022/10/31 07:59:43;;;;;;;2.00;0.50;;;;;;;8.11;64.38;98871.77;25370;1297;3068320;-67
2022/10/31 08:02:13;;;;;;;1.00;0.40;;;;;;;8.17;64.41;98878.19;25392;1296;3030135;-67
2022/10/31 08:05:02;;;;;;;3.60;1.00;;;;;;;8.16;64.64;98882.80;25401;1297;3056547;-67
2022/10/31 08:07:35;;;;;;;2.50;0.60;;;;;;;8.17;64.53;98881.34;25343;1290;3026957;-66
2022/10/31 08:10:06;;;;;;;2.60;0.90;;;;;;;8.40;64.08;98873.84;25365;1301;3054345;-67
2022/10/31 08:13:07;;;;;;;2.00;0.90;;;;;;;8.52;63.90;98880.48;25365;1294;3051690;-68
2022/10/31 08:15:39;;;;;;;2.30;0.90;;;;;;;8.43;61.53;98900.70;25396;1305;3052452;-67
2022/10/31 08:18:13;;;;;;;2.10;1.10;;;;;;;8.24;57.51;98914.61;25375;1295;3026412;-67
2022/10/31 08:20:42;;;;;;;0.80;0.50;;;;;;;8.08;55.99;98904.72;25326;1301;3026511;-67
2022/10/31 08:23:11;;;;;;;0.80;0.60;;;;;;;8.18;55.60;98917.36;25372;1296;3026811;-67
2022/10/31 08:25:42;;;;;;;1.90;0.50;;;;;;;8.27;54.89;98928.03;25327;1296;3050387;-65
2022/10/31 08:28:11;;;;;;;0.40;0.40;;;;;;;8.20;55.29;98915.00;25353;1294;3028509;-66
2022/10/31 08:30:41;;;;;;;1.00;0.50;;;;;;;8.36;55.06;98908.45;25393;1301;3029764;-66
2022/10/31 08:33:30;;;;;;;2.40;0.40;;;;;;;8.25;55.05;98907.59;25408;1288;3056256;-66
2022/10/31 08:36:28;;;;;;;1.50;0.60;;;;;;;8.25;54.78;98911.73;25342;1286;3052087;-66
2022/10/31 08:39:29;;;;;;;1.10;0.50;;;;;;;8.33;55.07;98908.98;25271;1304;3054619;-67
2022/10/31 08:41:59;;;;;;;1.40;0.60;;;;;;;8.42;54.47;98925.36;25340;1292;3027490;-67
2022/10/31 08:44:28;;;;;;;1.80;0.50;;;;;;;8.46;54.07;98911.58;25407;1290;3026227;-67
2022/10/31 08:46:57;;;;;;;2.40;0.60;;;;;;;8.32;53.56;98928.39;25343;1298;3053679;-67
2022/10/31 08:49:26;;;;;;;1.10;0.60;;;;;;;8.19;52.76;98919.38;25334;1296;3029947;-68
2022/10/31 08:51:55;;;;;;;4.10;0.60;;;;;;;8.23;51.57;98925.10;25291;1296;3052650;-70
2022/10/31 08:54:23;;;;;;;0.30;0.30;;;;;;;8.22;51.10;98915.59;25313;1296;3026287;-68
2022/10/31 08:56:59;;;;;;;0.90;0.70;;;;;;;8.23;50.98;98924.77;25505;1298;3056402;-67
2022/10/31 08:59:37;;;;;;;1.00;0.50;;;;;;;8.21;51.75;98916.52;25390;1293;3053076;-67
2022/10/31 09:02:26;;;;;;;1.00;0.50;;;;;;;8.02;51.53;98934.72;25401;1296;3055046;-67
2022/10/31 09:05:00;;;;;;;4.10;0.60;;;;;;;7.94;50.75;98939.19;25348;1293;3052034;-67
2022/10/31 09:07:28;;;;;;;1.50;0.60;;;;;;;7.87;49.67;98940.83;25399;1298;3026917;-66
2022/10/31 09:09:58;;;;;;;0.70;0.50;;;;;;;7.81;48.53;98932.14;25307;1292;3053736;-66
2022/10/31 09:12:28;;;;;;;1.50;0.70;;;;;;;7.74;47.12;98944.35;25279;1294;3028462;-67
2022/10/31 09:15:17;;;;;;;1.20;0.70;;;;;;;7.93;46.53;98946.74;25343;1304;3053620;-66
2022/10/31 09:17:54;;;;;;;4.70;1.10;;;;;;;8.11;45.90;98947.78;25331;1295;3048756;-67
2022/10/31 09:20:30;;;;;;;1.50;0.40;;;;;;;8.14;45.71;98938.75;25373;1291;3070553;-66
2022/10/31 09:23:01;;;;;;;0.80;0.40;;;;;;;7.89;45.90;98944.89;25371;1298;3026764;-67
2022/10/31 09:25:35;;;;;;;2.50;1.00;;;;;;;8.05;46.10;98941.21;25273;1297;3055671;-66
2022/10/31 09:28:23;;;;;;;5.80;0.80;;;;;;;8.22;45.34;98944.02;25316;1301;3052874;-66
2022/10/31 09:30:53;;;;;;;4.60;1.00;;;;;;;8.28;44.89;98942.61;25347;1291;3027080;-66
2022/10/31 09:33:57;;;;;;;5.70;1.00;;;;;;;8.36;43.76;98935.00;25285;1298;3050910;-66
2022/10/31 09:36:47;;;;;;;1.60;0.70;;;;;;;8.15;44.21;98944.23;25350;1298;3053887;-66
2022/10/31 09:39:20;;;;;;;1.20;0.70;;;;;;;8.21;44.42;98930.83;25387;1296;3049677;-66
2022/10/31 09:42:20;;;;;;;1.30;0.50;;;;;;;8.23;44.68;98936.29;25330;1302;3070870;-66
2022/10/31 09:45:11;;;;;;;2.20;0.80;;;;;;;8.28;43.86;98929.73;25362;1305;3049981;-66
2022/10/31 09:48:15;;;;;;;1.40;0.50;;;;;;;8.40;43.38;98933.56;25355;1290;3056762;-66
2022/10/31 09:51:28;;;;;;;2.20;1.00;;;;;;;8.33;43.82;98938.13;25166;1306;3052080;-67
2022/10/31 09:54:39;;;;;;;1.80;0.80;;;;;;;8.47;43.72;98942.91;25345;1302;3054193;-66
2022/10/31 09:57:12;;;;;;;2.00;0.50;;;;;;;8.46;44.46;98949.77;25390;1293;3051055;-66
2022/10/31 09:59:43;;;;;;;1.50;0.50;;;;;;;8.25;45.82;98951.52;25292;1297;3053490;-66
2022/10/31 10:02:22;;;;;;;1.00;0.50;;;;;;;8.10;46.52;98974.35;25476;1298;3029277;-67
2022/10/31 10:04:58;;;;;;;1.30;0.40;;;;;;;7.90;46.69;98965.07;25374;1290;3068817;-67
2022/10/31 10:07:52;;;;;;;3.60;0.50;;;;;;;7.84;46.98;98974.65;25291;1291;3049310;-67
2022/10/31 10:10:59;;;;;;;1.40;0.70;;;;;;;7.84;46.48;98961.95;25361;1301;3057382;-67
2022/10/31 10:13:44;;;;;;;2.50;0.90;;;;;;;7.95;46.14;98965.65;25340;1298;3054487;-67
2022/10/31 10:16:42;;;;;;;3.80;1.70;;;;;;;8.23;46.10;98963.68;25393;1298;3054467;-66
2022/10/31 10:19:35;;;;;;;2.20;0.70;;;;;;;8.45;45.78;98967.66;25404;1288;3050548;-67
2022/10/31 10:22:16;;;;;;;0.80;0.60;;;;;;;8.24;46.89;98981.95;25378;1296;3054309;-67
2022/10/31 10:25:10;;;;;;;0.60;0.40;;;;;;;8.10;46.80;98984.16;25442;1298;3049735;-67
2022/10/31 10:28:21;;;;;;;0.60;0.40;;;;;;;7.66;46.96;98977.58;25402;1302;3071112;-67
2022/10/31 10:30:57;;;;;;;0.80;0.40;;;;;;;7.52;47.55;98999.44;25464;1289;3049940;-66
2022/10/31 10:33:33;;;;;;;0.70;0.40;;;;;;;7.65;47.73;98981.63;25424;1297;3056740;-67
2022/10/31 10:36:08;;;;;;;1.10;0.40;;;;;;;7.72;48.20;98990.30;25476;1286;3053122;-67
2022/10/31 10:38:48;;;;;;;1.30;0.60;;;;;;;7.79;48.70;99014.17;25338;1297;3052904;-69
2022/10/31 10:41:21;;;;;;;0.90;0.50;;;;;;;7.71;49.76;99007.65;25369;1290;3050579;-67
2022/10/31 10:43:51;;;;;;;1.70;0.50;;;;;;;7.79;49.87;99010.00;25320;1290;3026433;-66
2022/10/31 10:49:21;;;;;;;2.60;0.70;;;;;;;7.95;47.40;99029.13;25387;1302;3070325;-67
2022/10/31 10:52:00;;;;;;;1.40;0.40;;;;;;;7.89;46.02;99017.92;25427;1296;3026431;-66
2022/10/31 10:54:43;;;;;;;1.10;0.60;;;;;;;7.75;43.50;99029.58;25382;1306;3058102;-66
2022/10/31 10:57:50;;;;;;;2.30;0.60;;;;;;;7.31;44.25;99054.44;25398;1291;3053655;-67
2022/10/31 11:00:34;;;;;;;1.20;0.70;;;;;;;7.15;45.78;99046.59;25435;1294;3052916;-67
2022/10/31 11:03:05;;;;;;;1.80;0.40;;;;;;;7.12;46.09;99036.60;25422;1304;3052445;-67
2022/10/31 11:05:39;;;;;;;0.20;0.20;;;;;;;7.26;45.18;99033.59;25388;1289;3026505;-65
2022/10/31 11:08:09;;;;;;;0.40;0.30;;;;;;;7.30;45.00;99041.08;25423;1304;3049209;-67
2022/10/31 11:10:39;;;;;;;0.90;0.50;;;;;;;7.34;45.61;99042.07;25349;1297;3028265;-66
2022/10/31 11:13:20;;;;;;;2.70;0.70;;;;;;;7.39;46.00;99032.38;25403;1290;3026936;-66
2022/10/31 11:16:02;;;;;;;0.60;0.50;;;;;;;7.42;46.38;99046.52;25332;1298;3049559;-66
2022/10/31 11:18:34;;;;;;;1.70;0.50;;;;;;;7.50;45.98;99055.85;25387;1291;3068893;-66
2022/10/31 11:21:05;;;;;;;1.80;0.70;;;;;;;7.52;45.53;99052.44;25367;1298;3027176;-66
2022/10/31 11:23:35;;;;;;;0.90;0.60;;;;;;;7.65;45.49;99041.29;25303;1292;3027413;-66
2022/10/31 11:26:06;;;;;;;3.10;1.10;;;;;;;7.63;45.41;99042.79;25437;1289;3028261;-67
2022/10/31 11:28:35;;;;;;;3.30;1.50;;;;;;;7.97;45.03;99047.68;25391;1304;3050013;-66
2022/10/31 11:31:10;;;;;;;3.70;1.40;;;;;;;7.94;44.90;99050.12;25376;1298;3026551;-66
2022/10/31 11:33:48;;;;;;;3.80;0.80;;;;;;;7.54;44.05;99067.45;25408;1291;3069501;-66
2022/10/31 11:36:24;;;;;;;1.80;0.90;;;;;;;7.35;44.58;99059.77;25429;1302;3050531;-66
2022/10/31 11:38:53;;;;;;;2.90;1.00;;;;;;;7.41;45.17;99063.14;25424;1298;3058498;-67
2022/10/31 11:41:26;;;;;;;2.00;0.90;;;;;;;7.56;44.95;99073.31;25411;1291;3027694;-67
2022/10/31 11:43:58;;;;;;;1.50;0.80;;;;;;;7.55;45.02;99070.54;25377;1296;3055078;-66
2022/10/31 11:46:30;;;;;;;2.40;1.00;;;;;;;7.75;44.36;99069.84;25395;1297;3026293;-67
2022/10/31 11:49:00;;;;;;;3.90;1.00;;;;;;;7.86;43.54;99075.15;25446;1291;3027893;-66
2022/10/31 11:51:32;;;;;;;1.20;0.60;;;;;;;7.74;44.07;99090.43;25408;1281;3025951;-66
2022/10/31 11:54:03;;;;;;;4.80;1.00;;;;;;;7.61;44.32;99095.52;25440;1291;3052635;-67
2022/10/31 11:56:42;;;;;;;1.00;0.60;;;;;;;7.56;44.41;99088.81;25453;1304;3026713;-67
2022/10/31 11:59:22;;;;;;;1.30;0.50;;;;;;;7.65;44.07;99105.26;25328;1304;3050466;-67
2022/10/31 12:01:52;;;;;;;1.30;0.60;;;;;;;7.47;44.18;99101.81;25331;1288;3070567;-67
2022/10/31 12:04:39;;;;;;;1.00;0.60;;;;;;;7.62;43.83;99092.85;25411;1296;3027626;-66
2022/10/31 12:07:08;;;;;;;1.00;0.70;;;;;;;7.38;42.23;99106.16;25446;1298;3056895;-66